Terminal Aerodrome Forecast
Issued by NWS

Home | Current Version | Previous Version | Text Only | Print | Product List | Glossary On
Versions: 1 2 3 4 5 6 7 8 9 10 11 12 13 14 15 16 17 18 19 20 21 22 23 24 25 26 27
529
FTUS42 KCAE 280821 AAA
TAFCUB
TAF AMD
KCUB 280821Z 2808/2906 19004KT P6SM VCSH SCT015 BKN050
     FM281300 20007KT P6SM SCT020 BKN080
     FM281600 23011G17KT P6SM VCSH SCT035 BKN080
     FM290000 26005KT P6SM FEW150=

USA.gov is the U.S. government's official web portal to all federal, state and local government web resources and services.